Time;durP1;ratioP1;P1;durP2;ratioP2;P2;SDS_P1;SDS_P2;PMS_P1;PMS_P2;Temp;Humidity;BMP_temperature;BMP_pressure;BME280_temperature;BME280_humidity;BME280_pressure;Samples;Min_cycle;Max_cycle;Signal;HPM_P1;HPM_P2
2021/10/04 00:00:24;;;;;;;0.53;0.53;;;;;;;;;;5053573;28;20207;-68
2021/10/04 00:02:52;;;;;;;0.80;0.70;;;;;;;;;;5085312;28;20226;-69
2021/10/04 00:05:23;;;;;;;0.83;0.80;;;;;;;;;;5087267;28;20216;-69
2021/10/04 00:07:52;;;;;;;0.70;0.63;;;;;;;;;;5087467;28;20258;-68
2021/10/04 00:10:30;;;;;;;0.97;0.80;;;;;;;;;;5083579;28;20226;-69
2021/10/04 00:13:06;;;;;;;0.73;0.70;;;;;;;;;;5088237;28;20244;-69
2021/10/04 00:15:37;;;;;;;1.37;0.60;;;;;;;;;;5086911;28;20285;-69
2021/10/04 00:18:09;;;;;;;2.50;0.90;;;;;;;;;;5085126;28;20212;-69
2021/10/04 00:20:38;;;;;;;0.47;0.47;;;;;;;;;;5066003;28;20213;-69
2021/10/04 00:23:20;;;;;;;1.30;0.50;;;;;;;;;;5071549;28;20615;-69
2021/10/04 00:25:50;;;;;;;1.67;0.73;;;;;;;;;;5074060;28;20601;-68
2021/10/04 00:28:21;;;;;;;0.83;0.80;;;;;;;;;;5081187;28;20228;-69
2021/10/04 00:30:52;;;;;;;1.57;0.77;;;;;;;;;;5103357;28;20328;-69
2021/10/04 00:33:22;;;;;;;0.70;0.50;;;;;;;;;;5088299;28;20219;-69
2021/10/04 00:35:52;;;;;;;1.07;0.80;;;;;;;;;;5089025;28;20209;-69
2021/10/04 00:38:24;;;;;;;0.70;0.60;;;;;;;;;;5080235;28;20239;-68
2021/10/04 00:41:06;;;;;;;0.90;0.60;;;;;;;;;;5077801;28;20622;-68
2021/10/04 00:43:34;;;;;;;2.07;0.57;;;;;;;;;;5101310;28;20314;-69
2021/10/04 00:46:05;;;;;;;0.50;0.50;;;;;;;;;;5091198;28;20217;-68
2021/10/04 00:48:33;;;;;;;0.63;0.60;;;;;;;;;;5075390;28;20246;-67
2021/10/04 00:51:06;;;;;;;0.50;0.47;;;;;;;;;;5059605;28;20268;-68
2021/10/04 00:53:36;;;;;;;0.80;0.50;;;;;;;;;;5086849;28;20351;-68
2021/10/04 00:56:07;;;;;;;0.53;0.53;;;;;;;;;;5091008;28;20238;-68
2021/10/04 00:58:36;;;;;;;2.90;0.53;;;;;;;;;;5089039;28;20215;-68
2021/10/04 01:01:12;;;;;;;1.60;0.80;;;;;;;;;;5086201;28;20231;-68
2021/10/04 01:03:48;;;;;;;0.50;0.50;;;;;;;;;;5095552;28;20396;-68
2021/10/04 01:06:18;;;;;;;0.87;0.57;;;;;;;;;;5074079;28;20217;-68
2021/10/04 01:08:48;;;;;;;0.80;0.60;;;;;;;;;;5080263;28;20765;-68
2021/10/04 01:11:18;;;;;;;0.73;0.63;;;;;;;;;;5089294;28;20238;-69
2021/10/04 01:13:48;;;;;;;0.60;0.50;;;;;;;;;;5085558;28;20235;-69
2021/10/04 01:16:21;;;;;;;0.67;0.60;;;;;;;;;;5071177;28;20311;-68
2021/10/04 01:18:52;;;;;;;2.57;0.63;;;;;;;;;;5089653;28;20215;-68
2021/10/04 01:21:23;;;;;;;1.03;0.50;;;;;;;;;;5091537;28;20229;-68
2021/10/04 01:23:53;;;;;;;1.97;0.77;;;;;;;;;;5063083;28;20225;-68
2021/10/04 01:26:24;;;;;;;2.20;0.80;;;;;;;;;;5082949;27;20312;-68
2021/10/04 01:28:56;;;;;;;1.43;0.50;;;;;;;;;;5072586;28;20226;-68
2021/10/04 01:31:28;;;;;;;1.23;0.60;;;;;;;;;;5090603;28;20265;-68
2021/10/04 01:34:04;;;;;;;0.90;0.70;;;;;;;;;;5071679;28;20222;-68
2021/10/04 01:36:42;;;;;;;1.60;0.60;;;;;;;;;;5087167;28;20230;-68
2021/10/04 01:39:13;;;;;;;0.90;0.60;;;;;;;;;;5069848;28;20214;-69
2021/10/04 01:41:45;;;;;;;1.00;0.53;;;;;;;;;;5090988;28;20229;-68
2021/10/04 01:44:14;;;;;;;1.10;0.60;;;;;;;;;;5084708;28;20669;-68
2021/10/04 01:46:45;;;;;;;0.57;0.57;;;;;;;;;;5064856;28;20247;-68
2021/10/04 01:49:18;;;;;;;1.07;0.60;;;;;;;;;;5088303;28;20230;-68
2021/10/04 01:51:49;;;;;;;0.90;0.67;;;;;;;;;;5089550;28;20325;-68
2021/10/04 01:54:19;;;;;;;0.70;0.60;;;;;;;;;;5084934;28;20224;-68
2021/10/04 01:56:51;;;;;;;1.13;0.67;;;;;;;;;;5073171;28;20216;-69
2021/10/04 01:59:23;;;;;;;1.27;0.97;;;;;;;;;;5088574;28;20217;-68
2021/10/04 02:01:54;;;;;;;0.93;0.60;;;;;;;;;;5086660;28;20234;-68
2021/10/04 02:04:26;;;;;;;0.50;0.50;;;;;;;;;;5080497;28;20205;-68
2021/10/04 02:06:59;;;;;;;0.40;0.40;;;;;;;;;;5085360;28;20684;-68
2021/10/04 02:09:29;;;;;;;0.50;0.40;;;;;;;;;;5091705;28;20228;-68
2021/10/04 02:12:02;;;;;;;1.27;0.50;;;;;;;;;;5088528;28;20670;-68
2021/10/04 02:14:34;;;;;;;1.20;0.60;;;;;;;;;;5084042;28;20217;-68
2021/10/04 02:17:09;;;;;;;0.53;0.53;;;;;;;;;;5087316;28;20215;-68
2021/10/04 02:19:40;;;;;;;0.60;0.60;;;;;;;;;;5103156;28;20226;-67
2021/10/04 02:22:09;;;;;;;0.73;0.50;;;;;;;;;;5089961;28;20230;-67
2021/10/04 02:24:40;;;;;;;0.90;0.40;;;;;;;;;;5094161;28;20243;-67
2021/10/04 02:27:10;;;;;;;0.83;0.70;;;;;;;;;;5080723;28;20204;-67
2021/10/04 02:29:45;;;;;;;0.77;0.47;;;;;;;;;;5077767;28;20230;-68
2021/10/04 02:32:16;;;;;;;1.03;0.50;;;;;;;;;;5085854;28;20326;-70
2021/10/04 02:34:45;;;;;;;0.87;0.60;;;;;;;;;;5088764;28;20220;-69
2021/10/04 02:37:15;;;;;;;0.70;0.50;;;;;;;;;;5070615;28;20298;-69
2021/10/04 02:39:43;;;;;;;2.20;0.67;;;;;;;;;;5069581;28;20261;-69
2021/10/04 02:42:15;;;;;;;0.50;0.50;;;;;;;;;;5094473;28;20792;-68
2021/10/04 02:44:45;;;;;;;0.60;0.50;;;;;;;;;;5074428;28;20255;-69
2021/10/04 02:47:17;;;;;;;1.83;0.50;;;;;;;;;;5098016;28;20249;-69
2021/10/04 02:49:55;;;;;;;0.87;0.50;;;;;;;;;;5083342;28;20704;-69
2021/10/04 02:52:27;;;;;;;0.60;0.50;;;;;;;;;;5086896;28;20612;-69
2021/10/04 02:54:58;;;;;;;1.80;0.73;;;;;;;;;;5087005;28;20240;-69
2021/10/04 02:57:28;;;;;;;0.77;0.60;;;;;;;;;;5068985;28;20717;-70
2021/10/04 02:59:58;;;;;;;1.70;0.73;;;;;;;;;;5068937;28;20227;-68
2021/10/04 03:02:28;;;;;;;1.10;0.50;;;;;;;;;;5082698;28;20736;-69
2021/10/04 03:04:58;;;;;;;0.70;0.50;;;;;;;;;;5067870;28;20240;-69
2021/10/04 03:07:27;;;;;;;0.70;0.43;;;;;;;;;;5092990;28;20211;-68
2021/10/04 03:10:02;;;;;;;0.60;0.50;;;;;;;;;;5089641;28;20213;-68
2021/10/04 03:12:32;;;;;;;2.33;0.60;;;;;;;;;;5091772;28;21468;-69
2021/10/04 03:15:16;;;;;;;1.47;0.60;;;;;;;;;;5098083;28;20296;-68
2021/10/04 03:17:48;;;;;;;0.50;0.47;;;;;;;;;;5089261;28;20209;-69
2021/10/04 03:20:19;;;;;;;0.93;0.50;;;;;;;;;;5083829;28;20236;-69
2021/10/04 03:22:54;;;;;;;1.10;0.53;;;;;;;;;;5072811;28;20231;-69
2021/10/04 03:25:26;;;;;;;0.73;0.47;;;;;;;;;;5072652;28;20230;-68
2021/10/04 03:27:55;;;;;;;0.80;0.50;;;;;;;;;;5087445;28;20224;-68
2021/10/04 03:30:26;;;;;;;1.17;0.60;;;;;;;;;;5069045;28;20234;-69
2021/10/04 03:32:57;;;;;;;0.80;0.53;;;;;;;;;;5082154;28;20215;-69
2021/10/04 03:35:30;;;;;;;0.70;0.63;;;;;;;;;;5073477;28;20214;-69
2021/10/04 03:38:00;;;;;;;1.43;0.60;;;;;;;;;;5079490;28;20713;-69
2021/10/04 03:40:31;;;;;;;0.90;0.60;;;;;;;;;;5074920;28;20224;-68
2021/10/04 03:42:59;;;;;;;0.60;0.53;;;;;;;;;;5071456;28;20211;-69
2021/10/04 03:45:28;;;;;;;1.07;0.70;;;;;;;;;;5097080;28;20214;-69
2021/10/04 03:48:01;;;;;;;1.57;0.50;;;;;;;;;;5074913;28;20256;-69
2021/10/04 03:50:31;;;;;;;1.47;0.40;;;;;;;;;;5075629;28;20269;-68
2021/10/04 03:53:00;;;;;;;0.70;0.50;;;;;;;;;;5097397;28;20253;-68
2021/10/04 03:55:30;;;;;;;0.70;0.40;;;;;;;;;;5070268;28;20205;-68
2021/10/04 03:57:57;;;;;;;1.07;0.57;;;;;;;;;;5077737;28;20220;-69
2021/10/04 04:00:29;;;;;;;0.70;0.57;;;;;;;;;;5080514;28;20210;-69
2021/10/04 04:03:04;;;;;;;1.07;0.60;;;;;;;;;;5088215;28;20208;-69
2021/10/04 04:05:34;;;;;;;0.87;0.60;;;;;;;;;;5084595;28;20257;-69
2021/10/04 04:08:06;;;;;;;1.17;0.60;;;;;;;;;;5087811;28;20215;-69
2021/10/04 04:10:37;;;;;;;1.03;0.50;;;;;;;;;;5085677;28;20706;-69
2021/10/04 04:13:10;;;;;;;0.80;0.50;;;;;;;;;;5052253;28;20226;-68
2021/10/04 04:15:44;;;;;;;0.93;0.50;;;;;;;;;;5065882;28;20248;-68
2021/10/04 04:18:16;;;;;;;2.70;0.80;;;;;;;;;;5086980;28;20213;-68
2021/10/04 04:20:47;;;;;;;0.80;0.50;;;;;;;;;;5076188;28;20211;-68
2021/10/04 04:23:19;;;;;;;0.60;0.30;;;;;;;;;;5073530;28;20234;-69
2021/10/04 04:25:51;;;;;;;1.07;0.50;;;;;;;;;;5087649;28;20237;-69
2021/10/04 04:28:22;;;;;;;1.17;0.60;;;;;;;;;;5077943;28;20230;-69
2021/10/04 04:30:50;;;;;;;0.50;0.50;;;;;;;;;;5089138;28;20242;-69
2021/10/04 04:33:20;;;;;;;1.07;0.60;;;;;;;;;;5089223;28;20214;-68
2021/10/04 04:35:49;;;;;;;1.33;0.67;;;;;;;;;;5091103;28;20223;-68
2021/10/04 04:38:18;;;;;;;0.97;0.60;;;;;;;;;;5088101;28;20803;-69
2021/10/04 04:40:49;;;;;;;0.60;0.50;;;;;;;;;;5083946;28;20228;-68
2021/10/04 04:43:24;;;;;;;1.00;0.70;;;;;;;;;;5051991;28;20326;-68
2021/10/04 04:45:55;;;;;;;0.77;0.30;;;;;;;;;;5087606;28;20619;-68
2021/10/04 04:48:25;;;;;;;2.40;0.57;;;;;;;;;;5081641;28;20253;-68
2021/10/04 04:51:00;;;;;;;0.90;0.50;;;;;;;;;;5093742;28;20732;-68
2021/10/04 04:53:34;;;;;;;2.03;0.80;;;;;;;;;;5110480;27;20208;-68
2021/10/04 04:56:07;;;;;;;0.30;0.30;;;;;;;;;;5113741;27;20648;-69
2021/10/04 04:58:37;;;;;;;0.80;0.50;;;;;;;;;;5126827;27;20230;-69
2021/10/04 05:01:07;;;;;;;1.90;0.63;;;;;;;;;;5117301;27;20230;-68
2021/10/04 05:03:43;;;;;;;1.33;0.50;;;;;;;;;;5099127;28;20637;-68
2021/10/04 05:06:15;;;;;;;0.60;0.43;;;;;;;;;;5105180;27;20228;-68
2021/10/04 05:08:46;;;;;;;1.20;0.70;;;;;;;;;;5110820;27;20207;-68
2021/10/04 05:11:17;;;;;;;0.57;0.57;;;;;;;;;;5107014;27;20638;-68
2021/10/04 05:13:49;;;;;;;0.57;0.57;;;;;;;;;;5106833;27;20223;-69
2021/10/04 05:16:19;;;;;;;0.57;0.40;;;;;;;;;;5104121;27;20231;-68
2021/10/04 05:18:49;;;;;;;0.80;0.60;;;;;;;;;;5109520;28;20227;-68
2021/10/04 05:21:20;;;;;;;0.90;0.50;;;;;;;;;;5107558;27;20210;-68
2021/10/04 05:23:56;;;;;;;2.23;0.60;;;;;;;;;;5104508;27;20656;-68
2021/10/04 05:26:27;;;;;;;3.73;1.17;;;;;;;;;;5102449;27;20266;-68
2021/10/04 05:28:59;;;;;;;5.37;1.37;;;;;;;;;;5092807;28;20219;-68
2021/10/04 05:31:33;;;;;;;4.07;1.40;;;;;;;;;;5113225;28;20226;-65
2021/10/04 05:34:05;;;;;;;16.10;3.17;;;;;;;;;;5111558;27;20565;-66
2021/10/04 05:36:35;;;;;;;15.63;3.57;;;;;;;;;;5103338;27;20693;-66
2021/10/04 05:39:06;;;;;;;15.53;3.83;;;;;;;;;;5108076;27;20223;-66
2021/10/04 05:41:34;;;;;;;13.57;4.40;;;;;;;;;;5092524;28;20254;-66
2021/10/04 05:44:03;;;;;;;18.60;4.53;;;;;;;;;;5107757;27;20226;-66
2021/10/04 05:46:36;;;;;;;16.40;4.33;;;;;;;;;;5105367;27;20219;-66
2021/10/04 05:49:04;;;;;;;17.47;4.80;;;;;;;;;;5106111;27;20240;-65
2021/10/04 05:51:33;;;;;;;11.23;4.10;;;;;;;;;;5109337;28;20231;-66
2021/10/04 05:54:02;;;;;;;17.03;4.10;;;;;;;;;;5090888;27;20224;-66
2021/10/04 05:56:32;;;;;;;10.20;3.70;;;;;;;;;;5118401;27;20210;-66
2021/10/04 05:59:02;;;;;;;10.13;3.83;;;;;;;;;;5104810;27;20223;-66
2021/10/04 06:01:31;;;;;;;15.53;3.93;;;;;;;;;;5104178;28;20231;-66
2021/10/04 06:04:03;;;;;;;11.23;3.40;;;;;;;;;;5107913;27;20656;-66
2021/10/04 06:06:33;;;;;;;12.10;3.47;;;;;;;;;;5093900;27;20238;-66
2021/10/04 06:09:08;;;;;;;12.00;3.30;;;;;;;;;;5109663;27;20219;-66
2021/10/04 06:11:40;;;;;;;8.83;3.30;;;;;;;;;;5093168;28;20222;-66
2021/10/04 06:14:12;;;;;;;10.03;3.20;;;;;;;;;;5103798;27;20302;-66
2021/10/04 06:16:44;;;;;;;7.55;2.70;;;;;;;;;;5100682;28;20440;-65
2021/10/04 06:19:17;;;;;;;7.67;2.63;;;;;;;;;;5108660;27;20201;-64
2021/10/04 06:21:47;;;;;;;8.27;2.33;;;;;;;;;;5092414;27;20226;-65
2021/10/04 06:24:19;;;;;;;6.87;2.63;;;;;;;;;;5104225;28;20262;-65
2021/10/04 06:26:49;;;;;;;10.43;2.60;;;;;;;;;;5096583;27;20249;-67
2021/10/04 06:29:18;;;;;;;8.57;2.90;;;;;;;;;;5114603;27;20199;-66
2021/10/04 06:31:48;;;;;;;16.53;3.23;;;;;;;;;;5108323;27;20236;-67
2021/10/04 06:34:25;;;;;;;9.13;2.97;;;;;;;;;;5096648;27;20221;-66
2021/10/04 06:36:55;;;;;;;11.57;3.07;;;;;;;;;;5120383;27;20220;-66
2021/10/04 06:39:29;;;;;;;10.87;2.70;;;;;;;;;;5119730;27;20550;-66
2021/10/04 06:41:59;;;;;;;10.77;3.10;;;;;;;;;;5109515;27;20259;-66
2021/10/04 06:44:31;;;;;;;11.40;3.13;;;;;;;;;;5110654;27;20261;-66
2021/10/04 06:47:01;;;;;;;14.70;3.00;;;;;;;;;;5105542;27;20698;-65
2021/10/04 06:49:35;;;;;;;12.00;2.77;;;;;;;;;;5093895;27;20215;-65
2021/10/04 06:52:07;;;;;;;8.77;2.20;;;;;;;;;;5099600;27;20230;-65
2021/10/04 06:54:39;;;;;;;11.20;2.13;;;;;;;;;;5110636;27;20218;-65
2021/10/04 06:57:12;;;;;;;6.43;1.80;;;;;;;;;;5108898;27;20551;-64
2021/10/04 06:59:45;;;;;;;10.50;2.03;;;;;;;;;;5099620;27;20286;-65
2021/10/04 07:02:16;;;;;;;6.33;1.87;;;;;;;;;;5108772;27;20225;-65
2021/10/04 07:04:48;;;;;;;7.57;2.00;;;;;;;;;;5105968;27;20243;-65
2021/10/04 07:07:17;;;;;;;7.57;1.77;;;;;;;;;;5111581;27;20212;-64
2021/10/04 07:09:50;;;;;;;7.33;1.50;;;;;;;;;;5106742;27;20210;-64
2021/10/04 07:12:33;;;;;;;4.87;1.60;;;;;;;;;;5109674;27;20254;-66
2021/10/04 07:15:17;;;;;;;4.77;1.50;;;;;;;;;;5110313;27;20275;-65
2021/10/04 07:17:47;;;;;;;10.50;1.70;;;;;;;;;;5043274;28;20212;-65
2021/10/04 07:20:15;;;;;;;4.10;1.80;;;;;;;;;;5104279;28;20205;-65
2021/10/04 07:22:47;;;;;;;8.80;1.77;;;;;;;;;;5106488;27;20283;-65
2021/10/04 07:25:14;;;;;;;5.27;1.50;;;;;;;;;;5086324;28;20232;-65
2021/10/04 07:27:46;;;;;;;4.67;1.53;;;;;;;;;;5106823;27;20222;-65
2021/10/04 07:30:17;;;;;;;6.07;1.40;;;;;;;;;;5116906;27;20247;-65
2021/10/04 07:32:48;;;;;;;6.50;1.70;;;;;;;;;;5106030;28;20702;-65
2021/10/04 07:35:17;;;;;;;4.00;1.47;;;;;;;;;;5114488;27;20214;-65
2021/10/04 07:37:48;;;;;;;5.03;1.63;;;;;;;;;;5103794;28;20231;-64
2021/10/04 07:40:16;;;;;;;3.40;1.43;;;;;;;;;;5107996;27;20261;-65
2021/10/04 07:42:45;;;;;;;4.77;1.80;;;;;;;;;;5105296;28;20289;-64
2021/10/04 07:45:16;;;;;;;2.33;1.03;;;;;;;;;;5109811;28;20553;-64
2021/10/04 07:47:46;;;;;;;3.67;1.63;;;;;;;;;;5119222;27;20269;-64
2021/10/04 07:50:15;;;;;;;3.50;1.60;;;;;;;;;;5109184;27;20215;-65
2021/10/04 07:52:45;;;;;;;4.03;1.40;;;;;;;;;;5083556;28;20290;-65
2021/10/04 07:55:25;;;;;;;6.93;1.40;;;;;;;;;;5087786;28;20199;-65
2021/10/04 07:57:57;;;;;;;4.57;1.40;;;;;;;;;;5086118;28;20222;-65
2021/10/04 08:00:27;;;;;;;6.00;1.33;;;;;;;;;;5078464;27;20203;-64
2021/10/04 08:02:57;;;;;;;3.73;1.30;;;;;;;;;;5123119;27;20792;-64
2021/10/04 08:05:30;;;;;;;3.97;1.53;;;;;;;;;;5088167;28;20224;-64
2021/10/04 08:08:00;;;;;;;3.90;1.43;;;;;;;;;;5095026;28;20219;-64
2021/10/04 08:10:31;;;;;;;4.33;1.73;;;;;;;;;;5078880;28;20210;-65
2021/10/04 08:13:05;;;;;;;4.80;2.27;;;;;;;;;;5128015;27;20703;-65
2021/10/04 08:15:35;;;;;;;4.00;1.67;;;;;;;;;;5090431;28;20218;-65
2021/10/04 08:18:10;;;;;;;4.67;1.53;;;;;;;;;;5097471;28;20275;-64
2021/10/04 08:20:45;;;;;;;2.67;1.37;;;;;;;;;;5089638;28;20228;-65
2021/10/04 08:23:16;;;;;;;1.87;1.23;;;;;;;;;;5102651;28;20212;-65
2021/10/04 08:25:46;;;;;;;2.87;1.47;;;;;;;;;;5088463;28;20220;-64
2021/10/04 08:28:16;;;;;;;2.53;1.30;;;;;;;;;;5088416;28;20222;-64
2021/10/04 08:30:47;;;;;;;3.83;1.30;;;;;;;;;;5088144;28;20213;-64
2021/10/04 08:33:19;;;;;;;11.07;1.40;;;;;;;;;;5093659;28;20265;-65
2021/10/04 08:35:52;;;;;;;8.10;1.73;;;;;;;;;;5095040;28;20596;-65
2021/10/04 08:38:20;;;;;;;8.77;1.50;;;;;;;;;;5090818;28;20217;-65
2021/10/04 08:40:49;;;;;;;5.63;1.50;;;;;;;;;;5092203;28;20190;-65
2021/10/04 08:43:17;;;;;;;6.93;1.53;;;;;;;;;;5094571;28;20207;-65
2021/10/04 08:45:48;;;;;;;7.77;1.50;;;;;;;;;;5091604;28;20196;-65
2021/10/04 08:48:18;;;;;;;5.87;1.50;;;;;;;;;;5095703;27;20435;-65
2021/10/04 08:50:48;;;;;;;4.80;1.23;;;;;;;;;;5127288;27;20211;-65
2021/10/04 08:53:18;;;;;;;2.77;1.20;;;;;;;;;;5107670;27;20240;-65
2021/10/04 08:55:58;;;;;;;4.67;1.30;;;;;;;;;;5114124;27;20621;-65
2021/10/04 08:58:32;;;;;;;3.63;1.10;;;;;;;;;;5106782;27;20240;-64
2021/10/04 09:01:10;;;;;;;2.37;0.97;;;;;;;;;;5105992;27;20215;-65
2021/10/04 09:03:53;;;;;;;3.17;1.20;;;;;;;;;;5113933;27;20712;-64
2021/10/04 09:06:32;;;;;;;5.97;1.50;;;;;;;;;;5106879;27;20567;-65
2021/10/04 09:09:12;;;;;;;10.43;1.60;;;;;;;;;;5107251;27;20196;-64
2021/10/04 09:11:47;;;;;;;2.23;0.97;;;;;;;;;;5107194;27;20208;-65
2021/10/04 09:14:32;;;;;;;4.37;1.00;;;;;;;;;;5114262;27;20598;-65
2021/10/04 09:17:08;;;;;;;5.67;1.20;;;;;;;;;;5109332;27;20205;-65
2021/10/04 09:19:41;;;;;;;4.93;1.43;;;;;;;;;;5116016;27;20192;-65
2021/10/04 09:22:14;;;;;;;3.87;1.50;;;;;;;;;;5122636;27;20253;-65
2021/10/04 09:25:00;;;;;;;3.60;1.30;;;;;;;;;;5105936;27;20660;-65
2021/10/04 09:27:41;;;;;;;5.67;1.63;;;;;;;;;;5115445;27;20196;-65
2021/10/04 09:30:26;;;;;;;4.20;1.63;;;;;;;;;;5109137;27;20287;-64
2021/10/04 09:33:06;;;;;;;7.57;1.70;;;;;;;;;;5119652;27;20208;-64
2021/10/04 09:35:37;;;;;;;5.20;1.77;;;;;;;;;;5107898;27;20207;-64
2021/10/04 09:38:06;;;;;;;5.37;1.53;;;;;;;;;;5117120;27;20247;-64
2021/10/04 09:40:35;;;;;;;4.93;1.40;;;;;;;;;;5105559;27;20241;-64
2021/10/04 09:43:13;;;;;;;2.93;1.40;;;;;;;;;;5109846;28;20245;-64
2021/10/04 09:45:43;;;;;;;4.53;1.40;;;;;;;;;;5120107;27;20216;-63
2021/10/04 09:48:14;;;;;;;7.03;1.50;;;;;;;;;;5099400;27;20254;-63
2021/10/04 09:50:44;;;;;;;6.07;1.40;;;;;;;;;;5084169;28;20243;-64
2021/10/04 09:53:15;;;;;;;3.63;1.43;;;;;;;;;;5093390;28;20226;-64
2021/10/04 09:55:48;;;;;;;5.63;1.43;;;;;;;;;;5088135;28;20199;-64
2021/10/04 09:58:30;;;;;;;4.20;1.60;;;;;;;;;;5071042;28;20206;-64
2021/10/04 10:01:05;;;;;;;5.70;2.93;;;;;;;;;;5088590;28;20314;-64
2021/10/04 10:03:43;;;;;;;9.17;2.60;;;;;;;;;;5090105;28;20226;-65
2021/10/04 10:06:14;;;;;;;9.83;2.90;;;;;;;;;;5058198;28;20215;-64
2021/10/04 10:08:42;;;;;;;6.83;2.07;;;;;;;;;;5084270;28;20225;-64
2021/10/04 10:11:17;;;;;;;9.17;2.67;;;;;;;;;;5090003;28;20212;-65
2021/10/04 10:13:48;;;;;;;6.00;2.33;;;;;;;;;;5069376;28;20240;-64
2021/10/04 10:16:23;;;;;;;5.27;2.23;;;;;;;;;;5085703;28;20217;-65
2021/10/04 10:19:07;;;;;;;4.77;2.10;;;;;;;;;;5086305;28;20220;-65
2021/10/04 10:21:47;;;;;;;5.07;2.10;;;;;;;;;;5088325;28;20236;-65
2021/10/04 10:24:30;;;;;;;5.03;2.10;;;;;;;;;;5064204;28;20220;-66
2021/10/04 10:27:03;;;;;;;9.93;2.07;;;;;;;;;;5047385;28;20238;-65
2021/10/04 10:29:32;;;;;;;9.03;2.23;;;;;;;;;;5068716;28;20221;-65
2021/10/04 10:32:06;;;;;;;3.63;1.60;;;;;;;;;;5087210;28;20214;-65
2021/10/04 10:34:43;;;;;;;6.23;2.30;;;;;;;;;;5087656;28;20653;-66
2021/10/04 10:37:27;;;;;;;5.57;1.80;;;;;;;;;;5087367;28;20663;-66
2021/10/04 10:40:12;;;;;;;4.70;1.87;;;;;;;;;;5087926;28;20278;-66
2021/10/04 10:42:43;;;;;;;6.63;1.83;;;;;;;;;;5086556;28;20213;-65
2021/10/04 10:45:19;;;;;;;9.47;1.90;;;;;;;;;;5064809;28;20211;-65
2021/10/04 10:48:08;;;;;;;5.20;1.80;;;;;;;;;;5081571;28;20246;-65
2021/10/04 10:50:52;;;;;;;4.10;1.67;;;;;;;;;;5069998;28;20200;-65
2021/10/04 10:53:34;;;;;;;8.27;1.87;;;;;;;;;;5087230;28;20307;-65
2021/10/04 10:56:05;;;;;;;4.87;1.33;;;;;;;;;;5085471;28;20712;-65
2021/10/04 10:58:37;;;;;;;4.20;1.43;;;;;;;;;;5086343;28;20216;-65
2021/10/04 11:01:16;;;;;;;5.17;1.40;;;;;;;;;;5080382;28;20619;-65
2021/10/04 11:03:47;;;;;;;7.33;1.93;;;;;;;;;;5068407;28;20204;-65
2021/10/04 11:06:17;;;;;;;7.47;2.00;;;;;;;;;;5084354;28;20215;-65
2021/10/04 11:08:50;;;;;;;3.83;1.40;;;;;;;;;;5083859;28;20200;-65
2021/10/04 11:11:22;;;;;;;4.53;1.13;;;;;;;;;;5086077;28;20201;-65
2021/10/04 11:13:57;;;;;;;4.47;1.60;;;;;;;;;;5084501;28;20270;-64
2021/10/04 11:16:28;;;;;;;3.53;1.10;;;;;;;;;;5084505;28;20205;-64
2021/10/04 11:18:59;;;;;;;2.63;1.30;;;;;;;;;;5085965;28;20214;-65
2021/10/04 11:21:33;;;;;;;5.03;1.33;;;;;;;;;;5070240;28;20201;-65
2021/10/04 11:24:08;;;;;;;4.13;1.40;;;;;;;;;;5086911;28;20205;-65
2021/10/04 11:26:37;;;;;;;5.03;1.63;;;;;;;;;;5081591;28;20225;-65
2021/10/04 11:29:13;;;;;;;4.00;1.60;;;;;;;;;;5086047;28;20208;-65
2021/10/04 11:31:59;;;;;;;4.23;1.60;;;;;;;;;;5084077;28;20281;-65
2021/10/04 11:34:31;;;;;;;1.30;0.90;;;;;;;;;;5082356;28;20198;-65
2021/10/04 11:37:05;;;;;;;5.70;1.43;;;;;;;;;;5082982;28;20213;-65
2021/10/04 11:39:36;;;;;;;4.23;1.20;;;;;;;;;;5086566;28;20492;-65
2021/10/04 11:42:08;;;;;;;3.97;1.70;;;;;;;;;;5086605;28;20221;-65
2021/10/04 11:44:47;;;;;;;6.63;1.97;;;;;;;;;;5068387;28;20596;-64
2021/10/04 11:47:17;;;;;;;3.30;1.33;;;;;;;;;;5081716;28;20270;-65
2021/10/04 11:49:53;;;;;;;5.53;1.80;;;;;;;;;;5063364;28;21671;-65
2021/10/04 11:52:27;;;;;;;3.10;1.30;;;;;;;;;;5044977;28;20205;-65
2021/10/04 11:54:58;;;;;;;5.87;1.57;;;;;;;;;;5063559;28;20326;-67
2021/10/04 11:57:32;;;;;;;5.03;1.87;;;;;;;;;;5063782;28;20197;-67
2021/10/04 12:00:03;;;;;;;4.10;1.40;;;;;;;;;;5062163;28;20214;-64
2021/10/04 12:02:37;;;;;;;4.67;1.63;;;;;;;;;;5043451;28;20591;-66
2021/10/04 12:05:21;;;;;;;5.63;2.03;;;;;;;;;;5076422;28;20216;-66
2021/10/04 12:08:13;;;;;;;5.27;1.70;;;;;;;;;;5062914;28;20216;-65
2021/10/04 12:10:56;;;;;;;5.57;1.77;;;;;;;;;;5045354;28;20831;-65
2021/10/04 12:13:31;;;;;;;6.27;1.73;;;;;;;;;;5057771;28;20242;-66
2021/10/04 12:16:27;;;;;;;6.67;1.40;;;;;;;;;;5061336;28;20212;-66
2021/10/04 12:19:00;;;;;;;6.67;2.00;;;;;;;;;;5059524;28;20773;-66
2021/10/04 12:21:43;;;;;;;4.80;1.90;;;;;;;;;;5066667;28;20193;-66
2021/10/04 12:24:19;;;;;;;3.40;1.13;;;;;;;;;;5064539;28;20210;-66
2021/10/04 12:27:09;;;;;;;5.53;1.37;;;;;;;;;;5065693;28;20202;-66
2021/10/04 12:30:00;;;;;;;3.70;1.40;;;;;;;;;;5061830;28;20281;-66
2021/10/04 12:32:39;;;;;;;5.37;1.10;;;;;;;;;;5059400;28;20206;-66
2021/10/04 12:35:26;;;;;;;5.57;1.20;;;;;;;;;;5068307;28;20270;-66
2021/10/04 12:38:18;;;;;;;2.90;1.27;;;;;;;;;;5040691;28;20225;-67
2021/10/04 12:40:49;;;;;;;5.03;1.30;;;;;;;;;;5066267;28;20558;-66
2021/10/04 12:43:27;;;;;;;3.53;0.90;;;;;;;;;;5047830;28;20210;-66
2021/10/04 12:46:10;;;;;;;3.83;1.20;;;;;;;;;;5063621;28;20558;-66
2021/10/04 12:48:40;;;;;;;6.73;0.90;;;;;;;;;;5056792;28;20229;-65
2021/10/04 12:51:19;;;;;;;4.37;1.03;;;;;;;;;;5062178;28;20537;-65
2021/10/04 12:53:57;;;;;;;4.70;1.00;;;;;;;;;;5064883;28;20595;-67
2021/10/04 12:56:31;;;;;;;4.13;1.17;;;;;;;;;;5065372;28;20209;-66
2021/10/04 12:59:05;;;;;;;3.93;1.23;;;;;;;;;;5050710;28;20850;-66
2021/10/04 13:01:33;;;;;;;6.13;1.43;;;;;;;;;;5052995;28;20313;-66
2021/10/04 13:04:09;;;;;;;4.40;1.30;;;;;;;;;;5066285;28;20271;-66
2021/10/04 13:06:44;;;;;;;4.43;1.27;;;;;;;;;;5059503;28;20230;-66
2021/10/04 13:09:16;;;;;;;3.53;1.00;;;;;;;;;;5065477;28;20222;-66
2021/10/04 13:11:49;;;;;;;3.87;1.10;;;;;;;;;;5060190;28;20210;-66
2021/10/04 13:14:19;;;;;;;2.87;1.00;;;;;;;;;;5061968;28;20346;-66
2021/10/04 13:16:54;;;;;;;3.77;0.90;;;;;;;;;;5080037;28;20531;-65
2021/10/04 13:19:26;;;;;;;2.83;1.00;;;;;;;;;;5057506;28;20200;-66
2021/10/04 13:21:55;;;;;;;3.57;0.93;;;;;;;;;;5064137;28;20606;-67
2021/10/04 13:24:25;;;;;;;3.17;0.90;;;;;;;;;;5063925;28;20199;-66
2021/10/04 13:26:53;;;;;;;1.77;0.93;;;;;;;;;;5068956;28;20220;-66
2021/10/04 13:29:25;;;;;;;3.33;1.10;;;;;;;;;;5069823;28;20687;-66
2021/10/04 13:31:55;;;;;;;2.70;1.30;;;;;;;;;;5066877;28;20214;-65
2021/10/04 13:34:29;;;;;;;4.37;1.30;;;;;;;;;;5066820;28;20252;-65
2021/10/04 13:37:02;;;;;;;2.90;0.83;;;;;;;;;;5063626;28;20212;-65
2021/10/04 13:39:31;;;;;;;1.93;0.80;;;;;;;;;;5068847;28;20223;-66
2021/10/04 13:42:03;;;;;;;2.50;0.77;;;;;;;;;;5065937;28;20281;-66
2021/10/04 13:44:35;;;;;;;3.90;1.10;;;;;;;;;;5064506;28;20328;-66
2021/10/04 13:47:07;;;;;;;2.87;0.80;;;;;;;;;;5065977;28;20201;-66
2021/10/04 13:49:37;;;;;;;4.17;1.10;;;;;;;;;;5064523;28;20225;-66
2021/10/04 13:52:05;;;;;;;2.93;0.90;;;;;;;;;;5069921;28;20599;-66
2021/10/04 13:54:39;;;;;;;4.57;0.80;;;;;;;;;;5062391;28;20248;-65
2021/10/04 13:57:11;;;;;;;1.43;0.70;;;;;;;;;;5070717;28;20201;-66
2021/10/04 13:59:41;;;;;;;4.63;0.83;;;;;;;;;;5066981;28;20205;-65
2021/10/04 14:02:11;;;;;;;2.80;1.07;;;;;;;;;;5056148;28;20220;-66
2021/10/04 14:04:41;;;;;;;3.83;0.90;;;;;;;;;;5049392;28;20205;-66
2021/10/04 14:07:12;;;;;;;4.00;0.80;;;;;;;;;;5055583;28;20198;-66
2021/10/04 14:09:43;;;;;;;3.50;0.90;;;;;;;;;;5066425;28;20263;-67
2021/10/04 14:12:15;;;;;;;1.63;0.80;;;;;;;;;;5062580;28;20569;-65
2021/10/04 14:14:45;;;;;;;3.57;1.10;;;;;;;;;;5065938;28;20325;-65
2021/10/04 14:17:15;;;;;;;2.23;1.03;;;;;;;;;;5079471;28;20218;-65
2021/10/04 14:19:47;;;;;;;2.30;0.93;;;;;;;;;;5074531;28;20210;-66
2021/10/04 14:22:16;;;;;;;3.07;1.20;;;;;;;;;;5069813;28;20225;-66
2021/10/04 14:24:45;;;;;;;2.07;1.00;;;;;;;;;;5074955;28;20218;-66
2021/10/04 14:27:21;;;;;;;1.87;0.93;;;;;;;;;;5063429;28;20233;-65
2021/10/04 14:29:53;;;;;;;2.83;1.10;;;;;;;;;;5065549;28;20215;-66
2021/10/04 14:32:27;;;;;;;3.57;1.00;;;;;;;;;;5044874;28;20265;-66
2021/10/04 14:34:59;;;;;;;3.70;1.10;;;;;;;;;;5033827;28;20223;-66
2021/10/04 14:37:37;;;;;;;2.07;1.03;;;;;;;;;;5067569;28;20653;-66
2021/10/04 14:40:09;;;;;;;3.80;1.10;;;;;;;;;;5050245;28;20209;-66
2021/10/04 14:42:43;;;;;;;3.97;1.00;;;;;;;;;;5066530;28;20266;-66
2021/10/04 14:45:21;;;;;;;2.37;0.90;;;;;;;;;;5052966;28;20216;-66
2021/10/04 14:47:51;;;;;;;2.50;0.80;;;;;;;;;;5075868;28;20211;-65
2021/10/04 14:50:20;;;;;;;1.43;0.90;;;;;;;;;;5062942;28;20237;-65
2021/10/04 14:52:52;;;;;;;4.27;0.90;;;;;;;;;;5063187;28;20692;-66
2021/10/04 14:55:22;;;;;;;1.87;1.00;;;;;;;;;;5063696;28;20203;-66
2021/10/04 14:57:52;;;;;;;1.97;0.97;;;;;;;;;;5065404;28;20190;-66
2021/10/04 15:00:21;;;;;;;2.13;0.90;;;;;;;;;;5062630;28;20202;-65
2021/10/04 15:02:53;;;;;;;1.20;0.90;;;;;;;;;;5067288;28;20241;-66
2021/10/04 15:05:22;;;;;;;2.70;1.10;;;;;;;;;;5066359;28;20204;-66
2021/10/04 15:07:55;;;;;;;4.50;1.00;;;;;;;;;;5068376;28;20325;-66
2021/10/04 15:10:27;;;;;;;2.03;1.20;;;;;;;;;;5065301;28;20216;-66
2021/10/04 15:12:59;;;;;;;2.40;1.00;;;;;;;;;;5066582;28;20651;-66
2021/10/04 15:15:31;;;;;;;2.20;0.97;;;;;;;;;;5063214;28;20287;-66